Arzamas, Russia
Current Conditions -  °F | °C
As of 3:00 PM on Friday 19 Dec 2014 (Local Time) from UWGG Reporting Station
Broken Clouds Broken Clouds  
Wind Chill: -4°   Ceiling: 4100
Heat Index:   Visibility: 6mi
Dew Point: -3°   Wind: 9mph
Humidity: 80%   Direction: 190°S
Pressure: 29.77"   Gusts: NA
Location:  55.38°N, 43.82°E
Report Text: UWGG 191200Z 19004MPS 9999 BKN041 00/M03 Q1008 NOSIG 18090050RMK QFE749
Loading
Personal Weather Stations






























Interactive Weather Map New forecast layout! Learn more

10-Day Weather Forecast

Advertisements
Track Severe Weather on mobile